createdAt,value
2018-04-15T00:00:44.055Z,35.40
2018-04-15T00:03:11.926Z,33.63
2018-04-15T00:05:39.661Z,29.80
2018-04-15T00:08:07.397Z,32.57
2018-04-15T00:10:35.207Z,31.77
2018-04-15T00:13:02.952Z,32.07
2018-04-15T00:15:30.745Z,33.20
2018-04-15T00:17:58.498Z,30.93
2018-04-15T00:20:26.246Z,32.93
2018-04-15T00:22:54.028Z,30.63
2018-04-15T00:25:21.746Z,33.30
2018-04-15T00:27:49.482Z,34.03
2018-04-15T00:30:18.035Z,32.87
2018-04-15T00:32:45.828Z,35.23
2018-04-15T00:35:13.570Z,33.23
2018-04-15T00:37:41.335Z,31.40
2018-04-15T00:40:09.119Z,35.43
2018-04-15T00:42:36.852Z,35.10
2018-04-15T00:45:04.734Z,35.47
2018-04-15T00:47:32.687Z,35.63
2018-04-15T00:50:00.427Z,31.93
2018-04-15T00:52:28.167Z,32.67
2018-04-15T00:54:56.715Z,33.63
2018-04-15T00:57:24.501Z,34.67
2018-04-15T00:59:52.320Z,35.60
2018-04-15T01:02:20.064Z,34.30
2018-04-15T01:04:47.843Z,34.43
2018-04-15T01:07:15.786Z,30.00
2018-04-15T01:09:44.274Z,32.90
2018-04-15T01:12:12.015Z,32.90
2018-04-15T01:14:40.577Z,33.63
2018-04-15T01:17:08.366Z,33.23
2018-04-15T01:19:36.869Z,36.07
2018-04-15T01:22:04.677Z,32.30
2018-04-15T01:24:32.626Z,32.10
2018-04-15T01:27:00.364Z,33.90
2018-04-15T01:29:28.848Z,33.83
2018-04-15T01:31:57.369Z,34.43
2018-04-15T01:34:25.269Z,36.17
2018-04-15T01:36:53.554Z,35.93
2018-04-15T01:39:21.341Z,36.60
2018-04-15T01:41:49.073Z,37.00
2018-04-15T01:44:16.844Z,36.80
2018-04-15T01:46:44.568Z,32.63
2018-04-15T01:49:12.520Z,33.63
2018-04-15T01:51:40.299Z,33.27
2018-04-15T01:54:08.092Z,36.07
2018-04-15T01:56:35.875Z,37.87
2018-04-15T01:59:03.631Z,35.50
2018-04-15T02:01:31.420Z,36.27
2018-04-15T02:03:59.952Z,38.97
2018-04-15T02:06:28.525Z,40.30
2018-04-15T02:08:56.272Z,36.80
2018-04-15T02:11:24.625Z,38.27
2018-04-15T02:13:53.198Z,40.50
2018-04-15T02:16:21.034Z,41.40
2018-04-15T02:18:48.838Z,38.37
2018-04-15T02:21:17.347Z,38.93
2018-04-15T02:23:45.136Z,39.23
2018-04-15T02:26:12.889Z,43.10
2018-04-15T02:28:40.869Z,41.10
2018-04-15T02:31:08.598Z,42.23
2018-04-15T02:33:37.161Z,43.23
2018-04-15T02:36:04.929Z,42.77
2018-04-15T02:38:33.440Z,44.70
2018-04-15T02:41:01.214Z,41.53
2018-04-15T02:43:29.041Z,39.20
2018-04-15T02:45:57.702Z,41.43
2018-04-15T02:48:25.525Z,42.17
2018-04-15T02:50:53.320Z,41.90
2018-04-15T02:53:21.108Z,41.27
2018-04-15T02:55:48.852Z,42.77
2018-04-15T02:58:17.411Z,42.77
2018-04-15T03:00:45.143Z,43.00
2018-04-15T03:03:13.728Z,43.50
2018-04-15T03:05:42.234Z,45.57
2018-04-15T03:08:10.004Z,44.70
2018-04-15T03:10:37.789Z,43.27
2018-04-15T03:13:05.567Z,47.43
2018-04-15T03:15:33.299Z,46.47
2018-04-15T03:18:01.163Z,44.77
2018-04-15T03:20:28.957Z,44.73
2018-04-15T03:22:56.769Z,47.33
2018-04-15T03:25:25.306Z,45.83
2018-04-15T03:27:53.148Z,45.97
2018-04-15T03:30:21.309Z,44.90
2018-04-15T03:32:49.047Z,44.87
2018-04-15T03:35:16.771Z,43.60
2018-04-15T03:37:44.551Z,44.30
2018-04-15T03:40:12.280Z,41.63
2018-04-15T03:42:40.111Z,44.03
2018-04-15T03:45:09.073Z,46.50
2018-04-15T03:47:36.827Z,43.73
2018-04-15T03:50:04.560Z,43.00
2018-04-15T03:52:32.334Z,43.60
2018-04-15T03:55:00.159Z,42.80
2018-04-15T03:57:28.718Z,44.63
2018-04-15T03:59:56.945Z,42.10
2018-04-15T04:02:24.691Z,46.30
2018-04-15T04:04:53.262Z,50.47
2018-04-15T04:07:21.145Z,45.03
2018-04-15T04:09:49.637Z,45.93
2018-04-15T04:12:18.144Z,48.23
2018-04-15T04:14:45.973Z,47.93
2018-04-15T04:17:14.470Z,47.90
2018-04-15T04:19:54.141Z,48.43
2018-04-15T04:22:33.700Z,48.90
2018-04-15T04:25:13.459Z,42.03
2018-04-15T04:27:41.235Z,46.20
2018-04-15T04:30:08.976Z,46.37
2018-04-15T04:32:36.862Z,45.20
2018-04-15T04:35:04.589Z,42.83
2018-04-15T04:37:32.312Z,48.10
2018-04-15T04:40:01.256Z,48.03
2018-04-15T04:42:28.984Z,48.23
2018-04-15T04:44:56.815Z,50.20
2018-04-15T04:47:24.658Z,46.60
2018-04-15T04:49:52.380Z,49.70
2018-04-15T04:52:20.942Z,49.43
2018-04-15T04:54:49.426Z,46.87
2018-04-15T04:57:17.927Z,51.43
2018-04-15T04:59:45.801Z,52.70
2018-04-15T05:02:13.527Z,50.97
2018-04-15T05:04:41.355Z,49.60
2018-04-15T05:07:09.147Z,50.77
2018-04-15T05:09:36.908Z,48.30
2018-04-15T05:12:04.669Z,47.50
2018-04-15T05:14:32.538Z,52.20
2018-04-15T05:17:00.284Z,52.00
2018-04-15T05:19:29.215Z,51.77
2018-04-15T05:21:56.946Z,51.30
2018-04-15T05:24:24.747Z,47.63
2018-04-15T05:26:53.302Z,46.57
2018-04-15T05:29:21.125Z,51.90
2018-04-15T05:31:49.221Z,58.57
2018-04-15T05:34:17.024Z,51.63
2018-04-15T05:36:44.877Z,56.43
2018-04-15T05:39:12.654Z,57.37
2018-04-15T05:41:42.928Z,58.07
2018-04-15T05:44:10.796Z,53.10
2018-04-15T05:46:41.860Z,56.10
2018-04-15T05:49:09.778Z,57.10
2018-04-15T05:51:38.302Z,55.90
2018-04-15T05:54:06.043Z,51.47
2018-04-15T05:56:33.888Z,56.70
2018-04-15T05:59:03.062Z,56.70
2018-04-15T06:01:31.037Z,59.53
2018-04-15T06:03:58.789Z,54.10
2018-04-15T06:06:26.612Z,59.53
2018-04-15T06:08:55.291Z,55.63
2018-04-15T06:11:23.351Z,56.43
2018-04-15T06:13:51.913Z,56.27
2018-04-15T06:16:32.424Z,58.63
2018-04-15T06:19:00.221Z,53.47
2018-04-15T06:21:28.451Z,53.40
2018-04-15T06:23:56.952Z,59.17
2018-04-15T06:26:24.721Z,55.50
2018-04-15T06:28:52.546Z,58.30
2018-04-15T06:31:21.103Z,58.10
2018-04-15T06:33:49.656Z,58.33
2018-04-15T06:36:18.648Z,59.17
2018-04-15T06:38:46.512Z,54.50
2018-04-15T06:41:14.251Z,50.97
2018-04-15T06:43:42.764Z,50.73
2018-04-15T06:46:10.541Z,53.47
2018-04-15T06:48:38.333Z,53.67
2018-04-15T06:51:06.242Z,54.57
2018-04-15T06:53:33.981Z,55.53
2018-04-15T06:56:02.490Z,53.00
2018-04-15T06:58:30.487Z,55.90
2018-04-15T07:00:58.281Z,54.27
2018-04-15T07:03:26.097Z,50.97
2018-04-15T07:05:53.867Z,52.13
2018-04-15T07:08:21.698Z,51.60
2018-04-15T07:10:50.200Z,51.47
2018-04-15T07:13:17.963Z,53.20
2018-04-15T07:15:46.443Z,52.73
2018-04-15T07:18:15.044Z,50.60
2018-04-15T07:20:42.840Z,50.80
2018-04-15T07:23:10.617Z,50.70
2018-04-15T07:25:38.385Z,53.20
2018-04-15T07:28:06.133Z,49.37
2018-04-15T07:30:33.929Z,52.47
2018-04-15T07:33:02.363Z,53.03
2018-04-15T07:35:30.192Z,54.03
2018-04-15T07:37:58.821Z,56.87
2018-04-15T07:40:26.619Z,53.97
2018-04-15T07:42:54.431Z,49.50
2018-04-15T07:45:23.125Z,50.57
2018-04-15T07:47:51.118Z,50.03
2018-04-15T07:50:21.121Z,48.53
2018-04-15T07:52:48.926Z,47.37
2018-04-15T07:55:16.931Z,46.70
2018-04-15T07:57:49.817Z,44.80
2018-04-15T08:00:18.024Z,47.17
2018-04-15T08:02:46.526Z,47.47
2018-04-15T08:05:15.931Z,44.30
2018-04-15T08:07:46.245Z,44.20
2018-04-15T08:10:14.802Z,46.10
2018-04-15T08:12:42.767Z,46.07
2018-04-15T08:15:12.765Z,45.50
2018-04-15T08:17:41.985Z,46.67
2018-04-15T08:20:10.724Z,43.90
2018-04-15T08:22:39.308Z,39.70
2018-04-15T08:25:07.107Z,41.90
2018-04-15T08:27:35.285Z,40.70
2018-04-15T08:30:03.036Z,39.83
2018-04-15T08:32:31.522Z,33.70
2018-04-15T08:35:00.138Z,34.50
2018-04-15T08:37:29.919Z,32.33
2018-04-15T08:39:57.737Z,33.80
2018-04-15T08:42:28.939Z,33.23
2018-04-15T08:44:57.644Z,30.37
2018-04-15T08:47:25.612Z,27.70
2018-04-15T08:49:53.367Z,25.37
2018-04-15T08:52:21.112Z,25.80
2018-04-15T08:54:48.976Z,24.27
2018-04-15T08:57:16.727Z,26.77
2018-04-15T08:59:45.228Z,24.00
2018-04-15T09:02:13.025Z,20.80
2018-04-15T09:04:40.819Z,22.20
2018-04-15T09:07:10.873Z,23.43
2018-04-15T09:09:40.442Z,24.20
2018-04-15T09:12:08.304Z,20.53
2018-04-15T09:14:36.097Z,20.87
2018-04-15T09:17:04.776Z,19.67
2018-04-15T09:19:35.096Z,20.23
2018-04-15T09:22:04.305Z,20.77
2018-04-15T09:24:32.241Z,16.60
2018-04-15T09:26:59.991Z,17.97
2018-04-15T09:29:27.741Z,15.03
2018-04-15T09:31:55.625Z,15.70
2018-04-15T09:34:23.419Z,13.93
2018-04-15T09:36:51.172Z,14.63
2018-04-15T09:39:18.989Z,17.37
2018-04-15T09:41:46.737Z,15.37
2018-04-15T09:44:15.486Z,14.00
2018-04-15T09:46:44.337Z,16.27
2018-04-15T09:49:13.121Z,15.37
2018-04-15T09:51:40.934Z,14.80
2018-04-15T09:54:08.703Z,14.73
2018-04-15T09:56:36.460Z,11.80
2018-04-15T09:59:04.240Z,11.23
2018-04-15T10:01:32.114Z,11.07
2018-04-15T10:04:00.643Z,6.67
2018-04-15T10:06:28.488Z,9.20
2018-04-15T10:08:56.213Z,8.27
2018-04-15T10:11:23.954Z,8.07
2018-04-15T10:13:51.740Z,8.90
2018-04-15T10:16:19.529Z,7.63
2018-04-15T10:18:48.085Z,6.57
2018-04-15T10:21:15.930Z,6.47
2018-04-15T10:23:43.749Z,5.73
2018-04-15T10:26:12.317Z,6.83
2018-04-15T10:28:40.096Z,5.67
2018-04-15T10:31:08.714Z,5.83
2018-04-15T10:33:36.441Z,4.80
2018-04-15T10:36:05.150Z,5.40
2018-04-15T10:38:32.932Z,6.30
2018-04-15T10:41:00.680Z,7.20
2018-04-15T10:43:28.503Z,7.73
2018-04-15T10:45:56.297Z,9.20
2018-04-15T10:48:24.865Z,8.57
2018-04-15T10:50:52.629Z,10.70
2018-04-15T10:53:20.424Z,10.70
2018-04-15T10:55:49.074Z,10.40
2018-04-15T10:58:17.772Z,13.90
2018-04-15T11:00:46.348Z,12.17
2018-04-15T11:03:14.303Z,10.73
2018-04-15T11:05:42.805Z,11.60
2018-04-15T11:08:10.543Z,11.03
2018-04-15T11:10:38.440Z,9.80
2018-04-15T11:13:06.197Z,12.87
2018-04-15T11:15:33.949Z,13.10
2018-04-15T11:18:01.792Z,13.17
2018-04-15T11:20:29.538Z,13.33
2018-04-15T11:22:57.350Z,14.87
2018-04-15T11:25:25.103Z,14.43
2018-04-15T11:27:52.828Z,17.70
2018-04-15T11:30:20.600Z,16.67
2018-04-15T11:32:48.402Z,15.23
2018-04-15T11:35:16.148Z,17.87
2018-04-15T11:37:43.912Z,16.80
2018-04-15T11:40:11.675Z,18.40
2018-04-15T11:42:39.505Z,17.63
2018-04-15T11:45:08.116Z,18.00
2018-04-15T11:47:35.895Z,17.40
2018-04-15T11:50:03.653Z,16.10
2018-04-15T11:52:31.466Z,19.00
2018-04-15T11:54:59.282Z,18.00
2018-04-15T11:57:27.015Z,14.37
2018-04-15T11:59:55.587Z,13.13
2018-04-15T12:02:24.132Z,14.60
2018-04-15T12:04:51.875Z,12.63
2018-04-15T12:07:19.643Z,15.73
2018-04-15T12:09:47.403Z,8.70
2018-04-15T12:12:15.133Z,9.17
2018-04-15T12:14:43.699Z,9.20
2018-04-15T12:17:11.455Z,9.80
2018-04-15T12:19:39.302Z,9.20
2018-04-15T12:22:07.029Z,10.37
2018-04-15T12:24:34.869Z,9.50
2018-04-15T12:27:03.461Z,9.27
2018-04-15T12:29:32.070Z,10.83
2018-04-15T12:32:00.025Z,8.80
2018-04-15T12:34:28.544Z,10.63
2018-04-15T12:36:56.297Z,10.50
2018-04-15T12:39:24.075Z,9.80
2018-04-15T12:41:51.829Z,9.60
2018-04-15T12:44:19.560Z,10.43
2018-04-15T12:46:47.448Z,8.83
2018-04-15T12:49:15.186Z,8.77
2018-04-15T12:51:43.676Z,7.50
2018-04-15T12:54:12.204Z,8.20
2018-04-15T12:56:39.999Z,8.60
2018-04-15T12:59:07.755Z,6.77
2018-04-15T13:01:35.552Z,5.13
2018-04-15T13:04:04.089Z,4.67
2018-04-15T13:06:31.808Z,5.63
2018-04-15T13:09:00.361Z,5.30
2018-04-15T13:11:28.093Z,5.50
2018-04-15T13:13:55.921Z,3.63
2018-04-15T13:16:24.408Z,4.73
2018-04-15T13:18:52.995Z,3.93
2018-04-15T13:21:20.777Z,2.83
2018-04-15T13:23:48.539Z,3.00
2018-04-15T13:26:16.369Z,3.40
2018-04-15T13:28:44.864Z,3.30
2018-04-15T13:31:13.402Z,2.83
2018-04-15T13:33:41.155Z,2.70
2018-04-15T13:36:08.902Z,3.60
2018-04-15T13:38:36.627Z,3.30
2018-04-15T13:41:05.210Z,3.00
2018-04-15T13:43:33.708Z,2.60
2018-04-15T13:46:02.715Z,3.63
2018-04-15T13:48:30.516Z,2.93
2018-04-15T13:50:58.325Z,3.80
2018-04-15T13:53:26.962Z,2.73
2018-04-15T13:55:54.690Z,2.87
2018-04-15T13:58:22.442Z,2.73
2018-04-15T14:00:50.986Z,3.20
2018-04-15T14:03:18.720Z,3.30
2018-04-15T14:05:46.544Z,2.67
2018-04-15T14:08:15.050Z,2.97
2018-04-15T14:10:42.921Z,2.37
2018-04-15T14:13:10.720Z,3.40
2018-04-15T14:15:38.680Z,2.80
2018-04-15T14:18:06.451Z,2.70
2018-04-15T14:20:34.252Z,3.27
2018-04-15T14:23:02.018Z,2.80
2018-04-15T14:25:29.860Z,2.60
2018-04-15T14:27:58.359Z,3.37
2018-04-15T14:30:26.152Z,3.03
2018-04-15T14:32:54.653Z,3.47
2018-04-15T14:35:22.489Z,2.67
2018-04-15T14:37:51.139Z,2.93
2018-04-15T14:40:18.925Z,3.20
2018-04-15T14:42:46.668Z,3.27
2018-04-15T14:45:14.510Z,2.70
2018-04-15T14:47:42.292Z,2.70
2018-04-15T14:50:10.080Z,2.67
2018-04-15T14:52:37.907Z,2.83
2018-04-15T14:55:05.687Z,3.20
2018-04-15T14:57:33.440Z,3.17
2018-04-15T15:00:01.185Z,3.70
2018-04-15T15:02:29.057Z,2.47
2018-04-15T15:04:56.850Z,2.77
2018-04-15T15:07:27.108Z,3.40
2018-04-15T15:09:56.573Z,3.10
2018-04-15T15:12:24.405Z,2.57
2018-04-15T15:14:52.217Z,2.63
2018-04-15T15:17:20.243Z,2.67
2018-04-15T15:19:51.360Z,2.10
2018-04-15T15:22:19.125Z,2.23
2018-04-15T15:24:47.691Z,3.10
2018-04-15T15:27:15.652Z,3.50
2018-04-15T15:29:43.477Z,3.13
2018-04-15T15:32:11.231Z,2.80
2018-04-15T15:34:40.647Z,2.67
2018-04-15T15:37:08.456Z,3.70
2018-04-15T15:39:37.873Z,2.67
2018-04-15T15:42:09.496Z,3.77
2018-04-15T15:44:37.380Z,3.63
2018-04-15T15:47:05.174Z,3.23
2018-04-15T15:49:33.867Z,3.47
2018-04-15T15:52:02.651Z,3.53
2018-04-15T15:54:31.340Z,4.10
2018-04-15T15:57:00.211Z,3.10
2018-04-15T15:59:28.054Z,4.10
2018-04-15T16:01:55.830Z,3.30
2018-04-15T16:04:26.266Z,3.30
2018-04-15T16:06:54.144Z,3.77
2018-04-15T16:09:23.265Z,4.20
2018-04-15T16:11:51.020Z,4.10
2018-04-15T16:14:24.559Z,5.23
2018-04-15T16:16:52.528Z,5.13
2018-04-15T16:19:20.338Z,6.30
2018-04-15T16:21:48.218Z,5.03
2018-04-15T16:24:15.947Z,5.50
2018-04-15T16:26:44.460Z,5.77
2018-04-15T16:29:15.016Z,5.73
2018-04-15T16:31:43.769Z,5.70
2018-04-15T16:34:11.578Z,5.00
2018-04-15T16:36:39.961Z,4.90
2018-04-15T16:39:08.501Z,4.63
2018-04-15T16:41:36.260Z,5.30
2018-04-15T16:44:04.233Z,5.17
2018-04-15T16:46:31.978Z,5.00
2018-04-15T16:49:00.522Z,4.40
2018-04-15T16:51:28.291Z,4.80
2018-04-15T16:53:56.034Z,4.80
2018-04-15T16:56:23.788Z,5.60
2018-04-15T16:58:51.522Z,5.20
2018-04-15T17:01:28.317Z,4.97
2018-04-15T17:03:56.078Z,6.00
2018-04-15T17:06:29.138Z,4.90
2018-04-15T17:09:06.906Z,5.50
2018-04-15T17:11:35.513Z,5.87
2018-04-15T17:14:13.754Z,5.37
2018-04-15T17:16:42.827Z,6.03
2018-04-15T17:19:13.701Z,5.33
2018-04-15T17:21:45.636Z,6.00
2018-04-15T17:24:15.582Z,7.37
2018-04-15T17:26:57.530Z,7.13
2018-04-15T17:29:26.894Z,7.27
2018-04-15T17:31:57.591Z,7.70
2018-04-15T17:34:31.490Z,7.73
2018-04-15T17:37:00.860Z,7.83
2018-04-15T17:39:29.088Z,8.67
2018-04-15T17:41:57.054Z,8.80
2018-04-15T17:44:25.649Z,7.80
2018-04-15T17:46:54.430Z,7.47
2018-04-15T17:49:25.503Z,7.27
2018-04-15T17:51:53.477Z,8.50
2018-04-15T17:54:22.816Z,8.47
2018-04-15T17:56:58.245Z,8.80
2018-04-15T17:59:26.133Z,8.17
2018-04-15T18:01:54.964Z,8.43
2018-04-15T18:04:23.753Z,8.27
2018-04-15T18:06:56.525Z,8.55
2018-04-15T18:09:24.973Z,9.23
2018-04-15T18:11:54.038Z,9.30
2018-04-15T18:14:22.630Z,8.53
2018-04-15T18:16:50.409Z,9.10
2018-04-15T18:19:18.143Z,10.20
2018-04-15T18:21:46.778Z,10.77
2018-04-15T18:24:15.278Z,9.60
2018-04-15T18:26:43.008Z,10.07
2018-04-15T18:29:10.841Z,10.00
2018-04-15T18:31:39.482Z,10.43
2018-04-15T18:34:07.668Z,10.10
2018-04-15T18:36:35.413Z,10.60
2018-04-15T18:39:03.185Z,10.00
2018-04-15T18:41:30.966Z,9.80
2018-04-15T18:44:00.416Z,10.03
2018-04-15T18:46:28.239Z,10.27
2018-04-15T18:48:55.963Z,11.03
2018-04-15T18:51:23.824Z,11.10
2018-04-15T18:53:52.954Z,10.97
2018-04-15T18:56:20.740Z,10.73
2018-04-15T18:58:49.570Z,9.63
2018-04-15T19:01:17.568Z,10.47
2018-04-15T19:03:45.650Z,11.20
2018-04-15T19:06:14.024Z,10.50
2018-04-15T19:08:41.763Z,10.30
2018-04-15T19:11:10.913Z,11.60
2018-04-15T19:13:39.138Z,10.43
2018-04-15T19:16:06.930Z,11.70
2018-04-15T19:18:34.768Z,11.90
2018-04-15T19:21:02.591Z,13.00
2018-04-15T19:23:31.155Z,12.53
2018-04-15T19:25:59.764Z,11.30
2018-04-15T19:28:30.031Z,11.60
2018-04-15T19:30:57.824Z,12.30
2018-04-15T19:33:25.657Z,11.20
2018-04-15T19:35:53.387Z,13.83
2018-04-15T19:38:21.609Z,13.80
2018-04-15T19:40:49.835Z,14.33
2018-04-15T19:43:18.085Z,12.67
2018-04-15T19:45:48.081Z,11.30
2018-04-15T19:48:17.404Z,12.20
2018-04-15T19:50:47.609Z,12.03
2018-04-15T19:53:15.674Z,15.40
2018-04-15T19:55:43.621Z,13.23
2018-04-15T19:58:13.030Z,12.93
2018-04-15T20:00:42.102Z,13.23
2018-04-15T20:03:10.396Z,14.87
2018-04-15T20:05:38.733Z,12.57
2018-04-15T20:08:07.729Z,11.87
2018-04-15T20:10:36.556Z,13.17
2018-04-15T20:13:04.426Z,14.13
2018-04-15T20:15:33.972Z,13.33
2018-04-15T20:18:03.318Z,14.00
2018-04-15T20:20:32.656Z,13.37
2018-04-15T20:23:01.020Z,15.37
2018-04-15T20:25:30.632Z,13.97
2018-04-15T20:27:59.612Z,12.53
2018-04-15T20:30:27.459Z,13.67
2018-04-15T20:32:55.908Z,14.90
2018-04-15T20:35:23.867Z,14.77
2018-04-15T20:37:52.692Z,15.47
2018-04-15T20:40:20.654Z,15.43
2018-04-15T20:42:49.422Z,16.33
2018-04-15T20:45:18.024Z,14.10
2018-04-15T20:47:46.546Z,17.87
2018-04-15T20:50:14.373Z,11.13
2018-04-15T20:52:43.691Z,15.90
2018-04-15T20:55:11.544Z,19.47
2018-04-15T20:57:39.287Z,15.50
2018-04-15T21:00:07.821Z,20.60
2018-04-15T21:02:35.647Z,18.70
2018-04-15T21:05:03.417Z,17.50
2018-04-15T21:07:31.228Z,19.37
2018-04-15T21:10:02.766Z,18.70
2018-04-15T21:12:32.108Z,15.97
2018-04-15T21:15:00.213Z,17.00
2018-04-15T21:17:28.947Z,20.50
2018-04-15T21:19:57.924Z,20.17
2018-04-15T21:22:26.841Z,18.90
2018-04-15T21:24:54.569Z,18.50
2018-04-15T21:27:22.895Z,19.73
2018-04-15T21:29:53.185Z,18.30
2018-04-15T21:32:20.980Z,19.00
2018-04-15T21:34:49.489Z,21.40
2018-04-15T21:37:21.244Z,19.20
2018-04-15T21:39:51.940Z,19.93
2018-04-15T21:42:20.825Z,19.00
2018-04-15T21:44:48.610Z,18.30
2018-04-15T21:47:17.136Z,20.70
2018-04-15T21:49:44.956Z,15.77
2018-04-15T21:52:13.009Z,20.00
2018-04-15T21:54:40.902Z,20.77
2018-04-15T21:57:09.433Z,19.27
2018-04-15T21:59:37.221Z,20.00
2018-04-15T22:02:05.039Z,19.07
2018-04-15T22:04:32.823Z,19.70
2018-04-15T22:07:00.600Z,22.97
2018-04-15T22:09:28.426Z,20.60
2018-04-15T22:12:08.774Z,18.77
2018-04-15T22:14:37.298Z,20.83
2018-04-15T22:17:05.069Z,20.67
2018-04-15T22:19:32.863Z,18.80
2018-04-15T22:22:00.629Z,15.80
2018-04-15T22:24:28.452Z,17.50
2018-04-15T22:26:56.224Z,17.70
2018-04-15T22:29:24.177Z,18.33
2018-04-15T22:31:51.938Z,19.77
2018-04-15T22:34:19.688Z,23.50
2018-04-15T22:36:48.301Z,14.33
2018-04-15T22:39:16.063Z,16.93
2018-04-15T22:41:43.928Z,19.27
2018-04-15T22:44:11.689Z,24.67
2018-04-15T22:46:39.479Z,22.83
2018-04-15T22:49:12.967Z,21.87
2018-04-15T22:51:40.788Z,21.50
2018-04-15T22:54:08.528Z,21.63
2018-04-15T22:56:42.047Z,21.63
2018-04-15T22:59:09.839Z,20.57
2018-04-15T23:01:37.675Z,21.67
2018-04-15T23:04:05.444Z,24.90
2018-04-15T23:06:33.278Z,28.00
2018-04-15T23:09:01.072Z,27.67
2018-04-15T23:11:28.855Z,28.60
2018-04-15T23:13:57.593Z,31.53
2018-04-15T23:16:26.506Z,28.57
2018-04-15T23:18:54.270Z,27.83
2018-04-15T23:21:22.089Z,27.50
2018-04-15T23:23:49.852Z,24.87
2018-04-15T23:26:17.627Z,24.83
2018-04-15T23:28:45.554Z,31.03
2018-04-15T23:31:13.318Z,31.17
2018-04-15T23:33:41.127Z,23.67
2018-04-15T23:36:08.928Z,29.47
2018-04-15T23:38:36.770Z,28.87
2018-04-15T23:41:04.633Z,29.60
2018-04-15T23:43:32.474Z,33.03
2018-04-15T23:46:00.264Z,30.80
2018-04-15T23:48:28.020Z,32.53
2018-04-15T23:50:55.997Z,28.60
2018-04-15T23:53:23.750Z,30.20
2018-04-15T23:55:51.500Z,30.40
2018-04-15T23:58:20.098Z,27.30
